OMDB

Dubai International Airport

Dubai, United Arab Emirates
TAF OMDB 191100Z 1912/2018 31010KT 9999 FEW035 BECMG 1915/1917 13005KT PROB30 2002/2005 4000 HZ BECMG 2009/2011 34010KT BECMG 2015/2017 12005KT
Issued Valid From Valid To
Dec-19 @ 11:00 UTC
(3 hours ago)
Dec-19 @ 12:00 UTC
(2 hours ago)
Dec-20 @ 18:00 UTC
(-1 days ago)
Dec-19 @ 12:00 to Dec-19 @ 15:00
TAF OMDB 191100Z 1912/2018 31010KT 9999 FEW035
Wind Visibility Clouds
310° at 10 knots 10,000+ meters
  • Few at 3,500' AGL
Becoming Dec-19 @ 15:00 to Dec-20 @ 09:00
BECMG 1915/1917 13005KT
Wind Visibility Clouds
130° at 5 knots 10,000+ meters
  • Few at 3,500' AGL
Probable  (Probability 30%) Dec-20 @ 02:00 to Dec-20 @ 05:00
PROB30 2002/2005 4000 HZ
Visibility Conditions
4,007 meters
  • Haze
Becoming Dec-20 @ 09:00 to Dec-20 @ 15:00
BECMG 2009/2011 34010KT
Wind Visibility Clouds
340° at 10 knots 10,000+ meters
  • Few at 3,500' AGL
Becoming Dec-20 @ 15:00 to Dec-20 @ 18:00
BECMG 2015/2017 12005KT
Wind Visibility Clouds
120° at 5 knots 10,000+ meters
  • Few at 3,500' AGL
TAF OMDB 191100Z 1912/2018 31010KT 9999 FEW035 BECMG 1915/1917 13005KT PROB30 2002/2005 4000 HZ BECMG 2009/2011 34010KT BECMG 2015/2017 12005KT
Issued Dec-19 @ 11:00 UTC
(3 hours ago)
Valid From Dec-19 @ 12:00 UTC
(2 hours ago)
Valid To Dec-20 @ 18:00 UTC
(-1 days ago)
Dec-19 @ 12:00 - Dec-19 @ 15:00
Wind Visibility
310° at 10 knots 10,000+ meters
Clouds
  • Few at 3,500' AGL
Becoming Dec-19 @ 15:00 - Dec-20 @ 09:00
Wind Visibility
130° at 5 knots 10,000+ meters
Clouds
  • Few at 3,500' AGL
Probability 30% Probable Dec-20 @ 02:00 - Dec-20 @ 05:00
Conditions
  • Haze
Becoming Dec-20 @ 09:00 - Dec-20 @ 15:00
Wind Visibility
340° at 10 knots 10,000+ meters
Clouds
  • Few at 3,500' AGL
Becoming Dec-20 @ 15:00 - Dec-20 @ 18:00
Wind Visibility
120° at 5 knots 10,000+ meters
Clouds
  • Few at 3,500' AGL